createdAt,value
2023-03-01T00:03:00.609Z,7.18
2023-03-01T00:06:01.901Z,6.50
2023-03-01T00:09:03.201Z,6.85
2023-03-01T00:12:04.538Z,8.67
2023-03-01T00:15:05.848Z,7.18
2023-03-01T00:18:07.161Z,8.45
2023-03-01T00:21:08.461Z,6.97
2023-03-01T00:24:09.763Z,8.93
2023-03-01T00:27:11.066Z,7.13
2023-03-01T00:30:12.368Z,7.32
2023-03-01T00:33:13.656Z,7.10
2023-03-01T00:36:14.957Z,7.35
2023-03-01T00:39:16.244Z,7.05
2023-03-01T00:42:17.561Z,6.53
2023-03-01T00:45:18.857Z,7.00
2023-03-01T00:48:20.151Z,7.22
2023-03-01T00:51:21.429Z,7.30
2023-03-01T00:54:22.717Z,6.60
2023-03-01T00:57:24.009Z,8.20
2023-03-01T01:00:25.317Z,6.72
2023-03-01T01:03:26.621Z,7.55
2023-03-01T01:06:28.194Z,7.57
2023-03-01T01:09:29.731Z,6.57
2023-03-01T01:12:31.025Z,5.83
2023-03-01T01:15:32.355Z,5.90
2023-03-01T01:18:33.656Z,7.15
2023-03-01T01:21:34.949Z,6.15
2023-03-01T01:24:36.249Z,5.90
2023-03-01T01:27:37.539Z,6.30
2023-03-01T01:30:38.834Z,6.75
2023-03-01T01:33:40.147Z,6.75
2023-03-01T01:36:41.428Z,6.03
2023-03-01T01:39:42.728Z,6.57
2023-03-01T01:42:44.027Z,6.00
2023-03-01T01:45:45.333Z,7.40
2023-03-01T01:48:46.641Z,5.95
2023-03-01T01:51:47.923Z,6.60
2023-03-01T01:54:49.214Z,6.20
2023-03-01T01:57:50.497Z,5.80
2023-03-01T02:00:51.781Z,7.82
2023-03-01T02:03:53.088Z,7.30
2023-03-01T02:06:54.379Z,5.65
2023-03-01T02:09:55.662Z,6.18
2023-03-01T02:12:56.949Z,5.93
2023-03-01T02:15:58.272Z,7.53
2023-03-01T02:18:59.551Z,5.65
2023-03-01T02:22:00.881Z,6.93
2023-03-01T02:25:02.206Z,6.38
2023-03-01T02:28:03.501Z,6.57
2023-03-01T02:31:04.833Z,6.10
2023-03-01T02:34:06.134Z,6.13
2023-03-01T02:37:07.439Z,5.50
2023-03-01T02:40:08.733Z,6.13
2023-03-01T02:43:10.025Z,5.67
2023-03-01T02:46:11.350Z,6.07
2023-03-01T02:49:12.653Z,6.80
2023-03-01T02:52:13.944Z,6.03
2023-03-01T02:55:16.420Z,5.55
2023-03-01T02:58:17.711Z,6.37
2023-03-01T03:01:19.101Z,5.65
2023-03-01T03:04:20.419Z,6.72
2023-03-01T03:07:21.700Z,5.88
2023-03-01T03:10:23.015Z,6.03
2023-03-01T03:13:24.304Z,5.80
2023-03-01T03:16:25.716Z,6.32
2023-03-01T03:19:27.126Z,6.15
2023-03-01T03:22:28.418Z,5.95
2023-03-01T03:25:29.733Z,6.38
2023-03-01T03:28:31.052Z,6.03
2023-03-01T03:31:32.432Z,5.65
2023-03-01T03:34:33.753Z,6.13
2023-03-01T03:37:35.070Z,5.75
2023-03-01T03:40:36.355Z,5.93
2023-03-01T03:43:37.680Z,5.63
2023-03-01T03:46:38.960Z,5.63
2023-03-01T03:49:40.258Z,5.95
2023-03-01T03:52:41.530Z,7.72
2023-03-01T03:55:42.819Z,6.20
2023-03-01T03:58:44.159Z,5.50
2023-03-01T04:01:45.474Z,5.40
2023-03-01T04:04:46.782Z,6.25
2023-03-01T04:07:48.074Z,6.13
2023-03-01T04:10:49.390Z,5.65
2023-03-01T04:13:50.709Z,5.83
2023-03-01T04:16:52.050Z,5.28
2023-03-01T04:19:53.377Z,7.63
2023-03-01T04:22:54.653Z,6.63
2023-03-01T04:25:55.973Z,5.90
2023-03-01T04:28:57.295Z,6.00
2023-03-01T04:31:58.690Z,5.82
2023-03-01T04:35:00.032Z,5.95
2023-03-01T04:38:01.325Z,5.68
2023-03-01T04:41:02.669Z,5.88
2023-03-01T04:44:03.964Z,5.87
2023-03-01T04:47:05.264Z,5.72
2023-03-01T04:50:06.549Z,5.55
2023-03-01T04:53:07.845Z,5.40
2023-03-01T04:56:09.170Z,6.13
2023-03-01T04:59:10.484Z,5.40
2023-03-01T05:02:11.786Z,6.07
2023-03-01T05:05:13.067Z,6.38
2023-03-01T05:08:14.345Z,6.82
2023-03-01T05:11:15.652Z,5.43
2023-03-01T05:14:16.968Z,5.40
2023-03-01T05:17:18.265Z,5.40
2023-03-01T05:20:19.575Z,5.50
2023-03-01T05:23:20.884Z,5.38
2023-03-01T05:26:29.184Z,5.63
2023-03-01T05:29:30.497Z,6.57
2023-03-01T05:32:31.800Z,6.20
2023-03-01T05:35:33.153Z,5.38
2023-03-01T05:38:34.458Z,5.50
2023-03-01T05:41:35.746Z,5.75
2023-03-01T05:44:37.064Z,5.93
2023-03-01T05:47:38.367Z,6.20
2023-03-01T05:50:39.663Z,5.85
2023-03-01T05:53:40.997Z,6.22
2023-03-01T05:56:42.272Z,7.10
2023-03-01T05:59:43.595Z,6.50
2023-03-01T06:02:44.886Z,7.18
2023-03-01T06:05:46.259Z,6.15
2023-03-01T06:08:47.560Z,7.68
2023-03-01T06:11:48.854Z,7.45
2023-03-01T06:14:50.139Z,10.27
2023-03-01T06:17:51.450Z,6.70
2023-03-01T06:20:52.762Z,12.77
2023-03-01T06:23:54.053Z,6.97
2023-03-01T06:26:55.360Z,8.55
2023-03-01T06:29:56.654Z,12.80
2023-03-01T06:32:57.961Z,8.60
2023-03-01T06:35:59.264Z,8.98
2023-03-01T06:39:00.645Z,9.82
2023-03-01T06:42:01.983Z,8.93
2023-03-01T06:45:03.275Z,9.97
2023-03-01T06:48:04.555Z,10.68
2023-03-01T06:51:05.845Z,11.80
2023-03-01T06:54:07.138Z,12.43
2023-03-01T06:57:08.517Z,12.55
2023-03-01T07:00:09.828Z,14.87
2023-03-01T07:03:11.256Z,12.80
2023-03-01T07:06:12.607Z,13.70
2023-03-01T07:09:13.912Z,46.22
2023-03-01T07:12:15.215Z,74.40
2023-03-01T07:15:16.536Z,65.73
2023-03-01T07:18:17.817Z,65.43
2023-03-01T07:21:19.145Z,52.05
2023-03-01T07:24:20.571Z,59.53
2023-03-01T07:27:21.885Z,51.33
2023-03-01T07:30:23.551Z,41.60
2023-03-01T07:33:24.969Z,41.33
2023-03-01T07:36:26.301Z,37.35
2023-03-01T07:39:27.655Z,29.42
2023-03-01T07:42:28.946Z,30.75
2023-03-01T07:45:30.304Z,40.67
2023-03-01T07:48:31.613Z,25.25
2023-03-01T07:51:32.950Z,27.38
2023-03-01T07:54:34.261Z,27.52
2023-03-01T07:57:35.570Z,29.02
2023-03-01T08:00:36.899Z,25.97
2023-03-01T08:03:38.194Z,27.20
2023-03-01T08:06:39.502Z,26.60
2023-03-01T08:09:40.821Z,25.88
2023-03-01T08:12:42.122Z,22.38
2023-03-01T08:15:43.444Z,21.43
2023-03-01T08:18:44.745Z,23.90
2023-03-01T08:21:46.092Z,23.10
2023-03-01T08:24:47.398Z,17.38
2023-03-01T08:27:48.750Z,15.65
2023-03-01T08:30:50.053Z,20.83
2023-03-01T08:33:51.354Z,15.27
2023-03-01T08:36:52.673Z,19.77
2023-03-01T08:39:54.077Z,19.83
2023-03-01T08:42:55.413Z,13.73
2023-03-01T08:45:56.739Z,102.27
2023-03-01T08:48:58.130Z,113.45
2023-03-01T08:51:59.431Z,105.40
2023-03-01T08:55:00.726Z,93.95
2023-03-01T08:58:02.048Z,68.53
2023-03-01T09:01:03.365Z,61.53
2023-03-01T09:04:04.684Z,49.38
2023-03-01T09:07:06.044Z,52.83
2023-03-01T09:10:07.380Z,47.33
2023-03-01T09:13:08.681Z,37.78
2023-03-01T09:16:09.967Z,38.07
2023-03-01T09:19:11.298Z,50.25
2023-03-01T09:22:12.611Z,31.98
2023-03-01T09:25:13.937Z,38.50
2023-03-01T09:28:28.867Z,31.20
2023-03-01T09:31:30.855Z,52.40
2023-03-01T09:34:32.168Z,40.08
2023-03-01T09:37:33.480Z,52.13
2023-03-01T09:40:34.783Z,66.47
2023-03-01T09:43:36.112Z,100.80
2023-03-01T09:46:37.499Z,101.73
2023-03-01T09:49:38.944Z,129.32
2023-03-01T09:52:40.237Z,134.70
2023-03-01T09:55:41.549Z,142.75
2023-03-01T09:58:42.859Z,115.47
2023-03-01T10:01:44.181Z,104.37
2023-03-01T10:04:45.530Z,77.78
2023-03-01T10:07:46.831Z,76.50
2023-03-01T10:10:48.117Z,76.72
2023-03-01T10:13:49.425Z,72.97
2023-03-01T10:16:50.735Z,58.93
2023-03-01T10:19:52.060Z,59.38
2023-03-01T10:22:53.399Z,48.20
2023-03-01T10:25:54.721Z,81.03
2023-03-01T10:28:56.059Z,55.83
2023-03-01T10:31:57.410Z,56.53
2023-03-01T10:34:58.748Z,55.03
2023-03-01T10:38:00.071Z,69.38
2023-03-01T10:41:01.400Z,48.80
2023-03-01T10:44:02.704Z,48.08
2023-03-01T10:47:04.058Z,40.27
2023-03-01T10:50:05.378Z,41.05
2023-03-01T10:53:06.705Z,48.08
2023-03-01T10:56:08.035Z,50.33
2023-03-01T10:59:09.345Z,37.20
2023-03-01T11:02:23.612Z,39.37
2023-03-01T11:05:25.590Z,44.50
2023-03-01T11:08:26.910Z,50.00
2023-03-01T11:11:28.400Z,38.00
2023-03-01T11:14:29.912Z,41.90
2023-03-01T11:17:34.714Z,37.63
2023-03-01T11:20:40.254Z,36.50
2023-03-01T11:23:41.576Z,36.35
2023-03-01T11:26:42.878Z,32.42
2023-03-01T11:29:48.896Z,21.95
2023-03-01T11:32:50.742Z,27.13
2023-03-01T11:35:52.136Z,38.10
2023-03-01T11:38:53.442Z,22.10
2023-03-01T11:41:54.806Z,32.60
2023-03-01T11:44:56.092Z,23.73
2023-03-01T11:47:57.395Z,27.57
2023-03-01T11:50:58.694Z,26.65
2023-03-01T11:54:00.013Z,34.70
2023-03-01T11:57:01.365Z,30.35
2023-03-01T12:00:02.674Z,27.48
2023-03-01T12:03:03.998Z,72.13
2023-03-01T12:06:05.295Z,85.57
2023-03-01T12:09:06.604Z,75.70
2023-03-01T12:12:07.908Z,67.13
2023-03-01T12:15:09.230Z,116.05
2023-03-01T12:18:10.533Z,62.47
2023-03-01T12:21:11.838Z,74.47
2023-03-01T12:24:13.172Z,63.60
2023-03-01T12:27:14.464Z,49.97
2023-03-01T12:30:15.790Z,44.78
2023-03-01T12:33:17.101Z,49.97
2023-03-01T12:36:18.424Z,46.25
2023-03-01T12:39:20.480Z,36.95
2023-03-01T12:42:21.823Z,44.85
2023-03-01T12:45:23.120Z,38.80
2023-03-01T12:48:24.421Z,42.83
2023-03-01T12:51:25.743Z,43.60
2023-03-01T12:54:27.146Z,33.92
2023-03-01T12:57:28.451Z,46.53
2023-03-01T13:00:29.747Z,34.72
2023-03-01T13:03:31.059Z,35.40
2023-03-01T13:06:42.582Z,40.72
2023-03-01T13:09:44.476Z,31.02
2023-03-01T13:12:45.791Z,43.67
2023-03-01T13:15:47.114Z,28.15
2023-03-01T13:18:48.440Z,30.13
2023-03-01T13:21:49.764Z,27.55
2023-03-01T13:24:51.079Z,22.88
2023-03-01T13:27:52.375Z,20.83
2023-03-01T13:30:53.694Z,21.73
2023-03-01T13:33:55.029Z,23.67
2023-03-01T13:36:56.406Z,23.95
2023-03-01T13:39:58.004Z,21.30
2023-03-01T13:43:05.644Z,25.17
2023-03-01T13:46:07.514Z,19.30
2023-03-01T13:49:08.839Z,15.77
2023-03-01T13:52:10.155Z,18.60
2023-03-01T13:55:11.448Z,19.38
2023-03-01T13:58:12.747Z,20.50
2023-03-01T14:01:14.123Z,17.83
2023-03-01T14:04:15.497Z,20.83
2023-03-01T14:07:16.829Z,17.33
2023-03-01T14:10:18.135Z,17.25
2023-03-01T14:13:19.437Z,14.98
2023-03-01T14:16:20.728Z,16.58
2023-03-01T14:19:32.582Z,14.40
2023-03-01T14:22:35.055Z,15.27
2023-03-01T14:25:36.361Z,13.00
2023-03-01T14:28:37.671Z,12.10
2023-03-01T14:31:51.975Z,15.88
2023-03-01T14:34:54.421Z,17.83
2023-03-01T14:37:55.708Z,14.00
2023-03-01T14:40:57.040Z,18.00
2023-03-01T14:43:58.432Z,34.42
2023-03-01T14:46:59.777Z,28.35
2023-03-01T14:50:01.093Z,21.47
2023-03-01T14:53:02.404Z,16.70
2023-03-01T14:56:03.685Z,22.33
2023-03-01T14:59:05.012Z,21.00
2023-03-01T15:02:06.296Z,26.17
2023-03-01T15:05:08.960Z,15.67
2023-03-01T15:08:10.572Z,16.73
2023-03-01T15:11:11.904Z,12.30
2023-03-01T15:14:13.214Z,18.00
2023-03-01T15:17:14.547Z,19.63
2023-03-01T15:20:15.831Z,14.37
2023-03-01T15:23:17.132Z,19.70
2023-03-01T15:26:18.431Z,16.85
2023-03-01T15:29:19.724Z,21.02
2023-03-01T15:32:21.104Z,14.57
2023-03-01T15:35:22.569Z,11.53
2023-03-01T15:38:25.891Z,11.65
2023-03-01T15:41:27.452Z,18.63
2023-03-01T15:44:35.046Z,11.85
2023-03-01T15:47:43.871Z,15.70
2023-03-01T15:50:45.218Z,12.67
2023-03-01T15:53:54.300Z,15.93
2023-03-01T15:56:56.125Z,15.48
2023-03-01T15:59:57.410Z,21.52
2023-03-01T16:02:58.773Z,23.85
2023-03-01T16:06:00.210Z,33.50
2023-03-01T16:09:01.513Z,26.60
2023-03-01T16:12:02.968Z,35.03
2023-03-01T16:15:04.578Z,27.10
2023-03-01T16:18:05.990Z,38.17
2023-03-01T16:21:07.336Z,37.27
2023-03-01T16:24:08.653Z,16.25
2023-03-01T16:27:09.948Z,32.17
2023-03-01T16:30:11.403Z,36.40
2023-03-01T16:33:26.268Z,50.42
2023-03-01T16:36:32.921Z,56.90
2023-03-01T16:39:34.245Z,54.65
2023-03-01T16:42:35.632Z,47.22
2023-03-01T16:45:37.425Z,51.60
2023-03-01T16:48:38.878Z,42.25
2023-03-01T16:51:40.513Z,38.13
2023-03-01T16:54:41.870Z,38.53
2023-03-01T16:57:43.195Z,39.47
2023-03-01T17:00:44.572Z,41.10
2023-03-01T17:03:45.896Z,42.15
2023-03-01T17:06:47.564Z,44.63
2023-03-01T17:09:48.950Z,52.35
2023-03-01T17:12:50.259Z,41.47
2023-03-01T17:15:51.941Z,45.35
2023-03-01T17:18:53.327Z,47.58
2023-03-01T17:21:54.667Z,70.33
2023-03-01T17:24:55.965Z,48.22
2023-03-01T17:27:57.290Z,79.15
2023-03-01T17:30:58.614Z,67.82
2023-03-01T17:34:01.529Z,59.65
2023-03-01T17:37:03.504Z,63.77
2023-03-01T17:40:04.891Z,56.03
2023-03-01T17:43:06.211Z,54.05
2023-03-01T17:46:08.804Z,51.92
2023-03-01T17:49:10.241Z,49.63
2023-03-01T17:52:11.983Z,50.47
2023-03-01T17:55:13.433Z,49.05
2023-03-01T17:58:15.029Z,42.92
2023-03-01T18:01:16.854Z,40.28
2023-03-01T18:04:18.671Z,34.95
2023-03-01T18:07:20.142Z,34.93
2023-03-01T18:10:21.539Z,30.15
2023-03-01T18:13:22.841Z,29.13
2023-03-01T18:16:24.445Z,32.92
2023-03-01T18:19:26.118Z,38.60
2023-03-01T18:22:27.824Z,28.33
2023-03-01T18:25:29.219Z,22.33
2023-03-01T18:28:30.800Z,27.40
2023-03-01T18:31:32.888Z,27.58
2023-03-01T18:34:34.639Z,21.45
2023-03-01T18:37:36.940Z,27.13
2023-03-01T18:40:38.813Z,26.65
2023-03-01T18:43:40.523Z,24.15
2023-03-01T18:46:42.350Z,16.83
2023-03-01T18:49:43.801Z,22.05
2023-03-01T18:52:45.418Z,18.70
2023-03-01T18:55:47.094Z,21.77
2023-03-01T18:58:48.912Z,22.95
2023-03-01T19:01:50.361Z,18.50
2023-03-01T19:04:52.098Z,17.83
2023-03-01T19:07:54.411Z,18.33
2023-03-01T19:10:56.217Z,18.70
2023-03-01T19:13:58.077Z,19.90
2023-03-01T19:17:00.567Z,19.88
2023-03-01T19:20:02.394Z,16.52
2023-03-01T19:23:04.189Z,18.43
2023-03-01T19:26:05.604Z,17.75
2023-03-01T19:29:07.245Z,15.55
2023-03-01T19:32:10.473Z,14.32
2023-03-01T19:35:12.277Z,14.80
2023-03-01T19:38:13.696Z,14.73
2023-03-01T19:41:16.334Z,17.80
2023-03-01T19:44:17.722Z,14.32
2023-03-01T19:47:19.047Z,16.88
2023-03-01T19:50:21.136Z,16.48
2023-03-01T19:53:22.984Z,15.63
2023-03-01T19:56:24.834Z,17.13
2023-03-01T19:59:26.670Z,16.38
2023-03-01T20:02:29.128Z,12.88
2023-03-01T20:05:31.210Z,17.73
2023-03-01T20:08:33.045Z,12.60
2023-03-01T20:11:34.894Z,15.38
2023-03-01T20:14:36.306Z,16.38
2023-03-01T20:17:38.099Z,15.48
2023-03-01T20:20:39.480Z,13.68
2023-03-01T20:23:41.134Z,16.13
2023-03-01T20:26:42.960Z,15.65
2023-03-01T20:29:45.615Z,13.60
2023-03-01T20:32:47.435Z,13.40
2023-03-01T20:35:49.284Z,16.02
2023-03-01T20:38:51.085Z,14.77
2023-03-01T20:41:52.829Z,13.55
2023-03-01T20:44:55.179Z,12.73
2023-03-01T20:47:56.943Z,14.38
2023-03-01T20:50:58.687Z,12.85
2023-03-01T20:54:00.505Z,12.27
2023-03-01T20:57:02.285Z,12.35
2023-03-01T21:00:04.061Z,12.52
2023-03-01T21:03:05.459Z,11.80
2023-03-01T21:06:06.780Z,11.85
2023-03-01T21:09:08.471Z,11.80
2023-03-01T21:12:10.139Z,11.35
2023-03-01T21:15:15.150Z,12.73
2023-03-01T21:18:24.867Z,13.15
2023-03-01T21:21:26.167Z,11.25
2023-03-01T21:24:27.491Z,12.87
2023-03-01T21:27:29.438Z,12.15
2023-03-01T21:30:30.853Z,11.05
2023-03-01T21:33:32.144Z,15.63
2023-03-01T21:36:33.835Z,11.98
2023-03-01T21:39:35.633Z,12.67
2023-03-01T21:42:36.981Z,10.65
2023-03-01T21:45:38.366Z,12.00
2023-03-01T21:48:40.075Z,10.30
2023-03-01T21:51:42.589Z,14.13
2023-03-01T21:54:43.869Z,11.60
2023-03-01T21:57:45.173Z,11.70
2023-03-01T22:00:46.479Z,13.65
2023-03-01T22:03:47.799Z,11.10
2023-03-01T22:06:49.104Z,12.02
2023-03-01T22:09:50.400Z,10.30
2023-03-01T22:12:51.737Z,11.45
2023-03-01T22:15:53.073Z,11.25
2023-03-01T22:18:54.399Z,10.65
2023-03-01T22:21:55.680Z,10.90
2023-03-01T22:24:56.993Z,10.83
2023-03-01T22:27:58.291Z,10.90
2023-03-01T22:30:59.628Z,11.57
2023-03-01T22:34:00.922Z,10.63
2023-03-01T22:37:02.245Z,10.50
2023-03-01T22:40:03.523Z,11.07
2023-03-01T22:43:04.844Z,10.25
2023-03-01T22:46:06.195Z,10.20
2023-03-01T22:49:07.513Z,9.10
2023-03-01T22:52:08.834Z,10.18
2023-03-01T22:55:10.125Z,10.20
2023-03-01T22:58:11.445Z,10.05
2023-03-01T23:01:12.742Z,11.35
2023-03-01T23:04:14.031Z,10.27
2023-03-01T23:07:15.329Z,8.82
2023-03-01T23:10:16.624Z,10.10
2023-03-01T23:13:17.920Z,8.85
2023-03-01T23:16:19.317Z,9.98
2023-03-01T23:19:20.665Z,9.02
2023-03-01T23:22:21.948Z,10.52
2023-03-01T23:25:23.239Z,9.47
2023-03-01T23:28:24.524Z,9.70
2023-03-01T23:31:25.882Z,9.30
2023-03-01T23:34:27.194Z,8.73
2023-03-01T23:37:28.477Z,8.73
2023-03-01T23:40:29.786Z,8.63
2023-03-01T23:43:31.094Z,8.90
2023-03-01T23:46:32.669Z,10.13
2023-03-01T23:49:34.173Z,9.70
2023-03-01T23:52:35.466Z,8.38
2023-03-01T23:55:36.768Z,8.33
2023-03-01T23:58:38.048Z,7.85
